sensor_id;sensor_type;location;lat;lon;timestamp;pressure;altitude;pressure_sealevel;temperature;humidity
3096;BME280;1558;42.700;23.360;2023-09-30T00:02:26;95716.66;;;18.36;nan
3096;BME280;1558;42.700;23.360;2023-09-30T00:04:55;95710.50;;;18.43;66.99
3096;BME280;1558;42.700;23.360;2023-09-30T00:07:23;95709.78;;;18.46;67.01
3096;BME280;1558;42.700;23.360;2023-09-30T00:09:51;95719.91;;;18.45;66.75
3096;BME280;1558;42.700;23.360;2023-09-30T00:12:20;95700.19;;;18.29;66.77
3096;BME280;1558;42.700;23.360;2023-09-30T00:14:49;95711.84;;;18.26;67.45
3096;BME280;1558;42.700;23.360;2023-09-30T00:17:17;95709.25;;;18.66;67.67
3096;BME280;1558;42.700;23.360;2023-09-30T00:19:45;95708.66;;;18.47;66.75
3096;BME280;1558;42.700;23.360;2023-09-30T00:22:13;95711.91;;;18.30;66.24
3096;BME280;1558;42.700;23.360;2023-09-30T00:24:41;95706.03;;;18.27;66.34
3096;BME280;1558;42.700;23.360;2023-09-30T00:27:09;95703.28;;;18.27;66.66
3096;BME280;1558;42.700;23.360;2023-09-30T00:29:39;95703.00;;;18.36;66.99
3096;BME280;1558;42.700;23.360;2023-09-30T00:32:07;95701.06;;;18.37;66.90
3096;BME280;1558;42.700;23.360;2023-09-30T00:34:35;95700.31;;;18.40;66.76
3096;BME280;1558;42.700;23.360;2023-09-30T00:37:03;95697.75;;;18.50;67.58
3096;BME280;1558;42.700;23.360;2023-09-30T00:39:32;95666.06;;;18.46;67.29
3096;BME280;1558;42.700;23.360;2023-09-30T00:42:00;95706.25;;;18.75;66.06
3096;BME280;1558;42.700;23.360;2023-09-30T00:44:31;95713.00;;;18.88;66.46
3096;BME280;1558;42.700;23.360;2023-09-30T00:47:01;95708.81;;;18.94;66.32
3096;BME280;1558;42.700;23.360;2023-09-30T00:49:29;95691.22;;;18.95;66.31
3096;BME280;1558;42.700;23.360;2023-09-30T00:51:58;95703.75;;;18.96;66.53
3096;BME280;1558;42.700;23.360;2023-09-30T00:54:29;95699.00;;;18.93;66.73
3096;BME280;1558;42.700;23.360;2023-09-30T00:56:58;95676.09;;;18.68;66.21
3096;BME280;1558;42.700;23.360;2023-09-30T00:59:29;95698.53;;;18.84;65.63
3096;BME280;1558;42.700;23.360;2023-09-30T01:02:01;95698.41;;;18.73;66.31
3096;BME280;1558;42.700;23.360;2023-09-30T01:04:32;95695.69;;;19.10;66.80
3096;BME280;1558;42.700;23.360;2023-09-30T01:07:00;95691.75;;;19.11;66.58
3096;BME280;1558;42.700;23.360;2023-09-30T01:09:28;95688.59;;;19.06;67.02
3096;BME280;1558;42.700;23.360;2023-09-30T01:11:57;95686.69;;;19.10;66.67
3096;BME280;1558;42.700;23.360;2023-09-30T01:14:30;95684.53;;;18.89;67.47
3096;BME280;1558;42.700;23.360;2023-09-30T01:16:58;95689.13;;;18.81;68.01
3096;BME280;1558;42.700;23.360;2023-09-30T01:19:28;95685.34;;;18.93;68.55
3096;BME280;1558;42.700;23.360;2023-09-30T01:21:58;95689.28;;;18.96;68.36
3096;BME280;1558;42.700;23.360;2023-09-30T01:24:26;95690.72;;;18.82;67.90
3096;BME280;1558;42.700;23.360;2023-09-30T01:26:55;95702.94;;;18.59;68.39
3096;BME280;1558;42.700;23.360;2023-09-30T01:29:23;95691.47;;;18.50;67.86
3096;BME280;1558;42.700;23.360;2023-09-30T01:31:52;95699.69;;;18.50;68.41
3096;BME280;1558;42.700;23.360;2023-09-30T01:34:20;95705.06;;;18.76;68.27
3096;BME280;1558;42.700;23.360;2023-09-30T01:36:49;95695.06;;;18.87;67.66
3096;BME280;1558;42.700;23.360;2023-09-30T01:39:19;95702.66;;;18.71;68.43
3096;BME280;1558;42.700;23.360;2023-09-30T01:41:47;95690.41;;;18.58;69.03
3096;BME280;1558;42.700;23.360;2023-09-30T01:44:15;95688.66;;;18.76;68.70
3096;BME280;1558;42.700;23.360;2023-09-30T01:46:43;95695.38;;;18.82;68.21
3096;BME280;1558;42.700;23.360;2023-09-30T01:49:11;95702.22;;;18.65;68.50
3096;BME280;1558;42.700;23.360;2023-09-30T01:51:39;95693.19;;;18.61;68.26
3096;BME280;1558;42.700;23.360;2023-09-30T01:54:07;95695.63;;;18.70;68.71
3096;BME280;1558;42.700;23.360;2023-09-30T01:56:37;95653.09;;;18.39;68.82
3096;BME280;1558;42.700;23.360;2023-09-30T01:59:05;95688.47;;;18.58;69.00
3096;BME280;1558;42.700;23.360;2023-09-30T02:01:33;95677.84;;;18.23;68.83
3096;BME280;1558;42.700;23.360;2023-09-30T02:04:01;95643.91;;;17.91;69.64
3096;BME280;1558;42.700;23.360;2023-09-30T02:06:29;95687.44;;;18.10;69.51
3096;BME280;1558;42.700;23.360;2023-09-30T02:08:57;95680.97;;;17.92;69.86
3096;BME280;1558;42.700;23.360;2023-09-30T02:11:25;95686.66;;;18.10;71.29
3096;BME280;1558;42.700;23.360;2023-09-30T02:13:57;95680.47;;;18.13;69.93
3096;BME280;1558;42.700;23.360;2023-09-30T02:16:25;95684.88;;;17.95;68.86
3096;BME280;1558;42.700;23.360;2023-09-30T02:18:53;95687.69;;;17.72;69.37
3096;BME280;1558;42.700;23.360;2023-09-30T02:21:21;95688.50;;;17.76;68.85
3096;BME280;1558;42.700;23.360;2023-09-30T02:23:49;95684.56;;;17.74;69.13
3096;BME280;1558;42.700;23.360;2023-09-30T02:26:22;95689.88;;;17.63;68.42
3096;BME280;1558;42.700;23.360;2023-09-30T02:28:52;95682.16;;;17.46;68.69
3096;BME280;1558;42.700;23.360;2023-09-30T02:31:20;95693.38;;;17.41;68.83
3096;BME280;1558;42.700;23.360;2023-09-30T02:33:48;95688.19;;;17.32;68.77
3096;BME280;1558;42.700;23.360;2023-09-30T02:36:16;95683.38;;;17.48;69.09
3096;BME280;1558;42.700;23.360;2023-09-30T02:38:45;95693.34;;;17.37;68.67
3096;BME280;1558;42.700;23.360;2023-09-30T02:41:15;95683.72;;;17.21;68.64
3096;BME280;1558;42.700;23.360;2023-09-30T02:43:43;95689.22;;;17.24;69.75
3096;BME280;1558;42.700;23.360;2023-09-30T02:46:14;95686.78;;;17.65;70.52
3096;BME280;1558;42.700;23.360;2023-09-30T02:48:44;95683.47;;;17.78;69.79
3096;BME280;1558;42.700;23.360;2023-09-30T02:51:13;95682.13;;;17.65;69.63
3096;BME280;1558;42.700;23.360;2023-09-30T02:53:41;95681.16;;;17.54;69.54
3096;BME280;1558;42.700;23.360;2023-09-30T02:56:09;95672.53;;;17.52;70.07
3096;BME280;1558;42.700;23.360;2023-09-30T02:58:37;95678.66;;;17.68;69.68
3096;BME280;1558;42.700;23.360;2023-09-30T03:01:07;95681.72;;;17.67;69.49
3096;BME280;1558;42.700;23.360;2023-09-30T03:03:37;95684.53;;;17.70;69.71
3096;BME280;1558;42.700;23.360;2023-09-30T03:06:08;95656.81;;;17.45;69.80
3096;BME280;1558;42.700;23.360;2023-09-30T03:08:37;95683.22;;;17.61;69.57
3096;BME280;1558;42.700;23.360;2023-09-30T03:11:05;95679.66;;;17.56;70.00
3096;BME280;1558;42.700;23.360;2023-09-30T03:13:34;95682.41;;;17.60;69.88
3096;BME280;1558;42.700;23.360;2023-09-30T03:16:02;95681.94;;;17.54;69.37
3096;BME280;1558;42.700;23.360;2023-09-30T03:18:31;95688.00;;;17.67;70.63
3096;BME280;1558;42.700;23.360;2023-09-30T03:21:00;95685.13;;;17.83;70.01
3096;BME280;1558;42.700;23.360;2023-09-30T03:23:33;95662.97;;;17.39;69.61
3096;BME280;1558;42.700;23.360;2023-09-30T03:26:01;95685.16;;;17.60;70.03
3096;BME280;1558;42.700;23.360;2023-09-30T03:28:29;95682.22;;;17.72;70.27
3096;BME280;1558;42.700;23.360;2023-09-30T03:30:57;95694.25;;;17.94;69.67
3096;BME280;1558;42.700;23.360;2023-09-30T03:33:26;95687.78;;;17.79;69.04
3096;BME280;1558;42.700;23.360;2023-09-30T03:35:54;95679.91;;;17.74;69.25
3096;BME280;1558;42.700;23.360;2023-09-30T03:38:22;95675.03;;;17.61;69.59
3096;BME280;1558;42.700;23.360;2023-09-30T03:40:52;95682.31;;;17.79;69.42
3096;BME280;1558;42.700;23.360;2023-09-30T03:43:22;95677.78;;;17.90;69.92
3096;BME280;1558;42.700;23.360;2023-09-30T03:45:50;95677.38;;;17.88;69.42
3096;BME280;1558;42.700;23.360;2023-09-30T03:48:20;95684.53;;;17.70;69.46
3096;BME280;1558;42.700;23.360;2023-09-30T03:50:48;95690.16;;;17.35;70.16
3096;BME280;1558;42.700;23.360;2023-09-30T03:53:16;95686.00;;;17.19;70.97
3096;BME280;1558;42.700;23.360;2023-09-30T03:55:44;95684.72;;;17.35;71.64
3096;BME280;1558;42.700;23.360;2023-09-30T03:58:13;95690.69;;;17.18;71.63
3096;BME280;1558;42.700;23.360;2023-09-30T04:00:42;95690.00;;;17.25;72.30
3096;BME280;1558;42.700;23.360;2023-09-30T04:03:10;95690.13;;;17.32;72.79
3096;BME280;1558;42.700;23.360;2023-09-30T04:05:38;95694.22;;;17.45;72.57
3096;BME280;1558;42.700;23.360;2023-09-30T04:08:07;95662.25;;;17.19;72.50
3096;BME280;1558;42.700;23.360;2023-09-30T04:10:35;95695.63;;;17.35;72.38
3096;BME280;1558;42.700;23.360;2023-09-30T04:13:03;95698.94;;;17.48;72.39
3096;BME280;1558;42.700;23.360;2023-09-30T04:15:32;95706.78;;;17.27;72.49
3096;BME280;1558;42.700;23.360;2023-09-30T04:18:04;95693.94;;;17.05;71.93
3096;BME280;1558;42.700;23.360;2023-09-30T04:20:32;95703.94;;;16.97;72.00
3096;BME280;1558;42.700;23.360;2023-09-30T04:23:00;95704.31;;;16.57;71.58
3096;BME280;1558;42.700;23.360;2023-09-30T04:25:29;95712.03;;;16.36;71.97
3096;BME280;1558;42.700;23.360;2023-09-30T04:27:57;95715.09;;;16.15;73.36
3096;BME280;1558;42.700;23.360;2023-09-30T04:30:25;95712.69;;;16.30;73.99
3096;BME280;1558;42.700;23.360;2023-09-30T04:32:55;95708.88;;;16.34;73.94
3096;BME280;1558;42.700;23.360;2023-09-30T04:35:25;95717.63;;;16.43;73.75
3096;BME280;1558;42.700;23.360;2023-09-30T04:37:54;95721.06;;;16.21;73.86
3096;BME280;1558;42.700;23.360;2023-09-30T04:40:22;95712.53;;;16.42;74.33
3096;BME280;1558;42.700;23.360;2023-09-30T04:42:50;95722.53;;;16.72;74.42
3096;BME280;1558;42.700;23.360;2023-09-30T04:45:21;95723.31;;;17.15;74.10
3096;BME280;1558;42.700;23.360;2023-09-30T04:47:51;95715.91;;;17.38;72.44
3096;BME280;1558;42.700;23.360;2023-09-30T04:50:21;95719.78;;;17.56;71.63
3096;BME280;1558;42.700;23.360;2023-09-30T04:52:50;95719.19;;;17.92;71.04
3096;BME280;1558;42.700;23.360;2023-09-30T04:55:19;95690.56;;;17.83;69.85
3096;BME280;1558;42.700;23.360;2023-09-30T04:57:47;95719.38;;;18.06;69.52
3096;BME280;1558;42.700;23.360;2023-09-30T05:00:16;95729.66;;;18.16;68.88
3096;BME280;1558;42.700;23.360;2023-09-30T05:02:45;95724.25;;;18.20;67.92
3096;BME280;1558;42.700;23.360;2023-09-30T05:05:14;95728.00;;;18.08;68.48
3096;BME280;1558;42.700;23.360;2023-09-30T05:07:44;95730.63;;;18.31;67.75
3096;BME280;1558;42.700;23.360;2023-09-30T05:10:14;95734.88;;;18.55;67.13
3096;BME280;1558;42.700;23.360;2023-09-30T05:12:43;95732.69;;;18.67;66.00
3096;BME280;1558;42.700;23.360;2023-09-30T05:15:15;95732.13;;;18.84;66.01
3096;BME280;1558;42.700;23.360;2023-09-30T05:17:44;95740.22;;;19.11;64.92
3096;BME280;1558;42.700;23.360;2023-09-30T05:20:13;95730.91;;;19.15;63.91
3096;BME280;1558;42.700;23.360;2023-09-30T05:22:46;95736.66;;;19.43;64.30
3096;BME280;1558;42.700;23.360;2023-09-30T05:25:16;95732.25;;;19.76;62.82
3096;BME280;1558;42.700;23.360;2023-09-30T05:27:45;95728.06;;;19.89;61.99
3096;BME280;1558;42.700;23.360;2023-09-30T05:30:15;95735.25;;;20.11;60.97
3096;BME280;1558;42.700;23.360;2023-09-30T05:32:43;95729.31;;;20.02;60.90
3096;BME280;1558;42.700;23.360;2023-09-30T05:35:13;95741.34;;;20.41;60.48
3096;BME280;1558;42.700;23.360;2023-09-30T05:37:46;95742.25;;;20.63;59.47
3096;BME280;1558;42.700;23.360;2023-09-30T05:40:14;95690.09;;;20.52;58.80
3096;BME280;1558;42.700;23.360;2023-09-30T05:42:50;95744.78;;;21.10;57.76
3096;BME280;1558;42.700;23.360;2023-09-30T05:45:18;95740.75;;;20.83;57.06
3096;BME280;1558;42.700;23.360;2023-09-30T05:47:47;95750.53;;;20.77;57.69
3096;BME280;1558;42.700;23.360;2023-09-30T05:50:18;95756.16;;;21.16;57.25
3096;BME280;1558;42.700;23.360;2023-09-30T05:52:52;95756.63;;;21.49;56.28
3096;BME280;1558;42.700;23.360;2023-09-30T05:55:20;95742.50;;;21.30;55.66
3096;BME280;1558;42.700;23.360;2023-09-30T05:57:49;95747.06;;;20.98;55.40
3096;BME280;1558;42.700;23.360;2023-09-30T06:00:19;95712.06;;;20.66;56.54
3096;BME280;1558;42.700;23.360;2023-09-30T06:02:56;95751.94;;;21.39;56.34
3096;BME280;1558;42.700;23.360;2023-09-30T06:05:24;95752.34;;;21.59;55.13
3096;BME280;1558;42.700;23.360;2023-09-30T06:07:58;95755.91;;;21.77;54.86
3096;BME280;1558;42.700;23.360;2023-09-30T06:10:26;95753.91;;;22.31;54.07
3096;BME280;1558;42.700;23.360;2023-09-30T06:12:56;95759.78;;;22.40;52.14
3096;BME280;1558;42.700;23.360;2023-09-30T06:15:25;95741.00;;;21.99;53.12
3096;BME280;1558;42.700;23.360;2023-09-30T06:17:54;95757.44;;;22.35;52.78
3096;BME280;1558;42.700;23.360;2023-09-30T06:20:24;95769.19;;;22.67;52.60
3096;BME280;1558;42.700;23.360;2023-09-30T06:22:54;95765.25;;;22.68;52.08
3096;BME280;1558;42.700;23.360;2023-09-30T06:25:24;95762.91;;;22.70;51.79
3096;BME280;1558;42.700;23.360;2023-09-30T06:27:53;95771.91;;;22.81;51.78
3096;BME280;1558;42.700;23.360;2023-09-30T06:30:22;95765.09;;;23.07;50.67
3096;BME280;1558;42.700;23.360;2023-09-30T06:32:57;95757.28;;;22.98;50.60
3096;BME280;1558;42.700;23.360;2023-09-30T06:35:27;95710.91;;;22.93;50.19
3096;BME280;1558;42.700;23.360;2023-09-30T06:37:56;95726.53;;;23.14;50.00
3096;BME280;1558;42.700;23.360;2023-09-30T06:40:26;95775.47;;;23.61;49.71
3096;BME280;1558;42.700;23.360;2023-09-30T06:42:55;95776.84;;;23.87;49.19
3096;BME280;1558;42.700;23.360;2023-09-30T06:45:24;95774.31;;;24.13;48.22
3096;BME280;1558;42.700;23.360;2023-09-30T06:47:53;95752.31;;;24.47;48.05
3096;BME280;1558;42.700;23.360;2023-09-30T06:50:22;95769.47;;;24.65;47.27
3096;BME280;1558;42.700;23.360;2023-09-30T06:52:50;95760.31;;;24.38;46.87
3096;BME280;1558;42.700;23.360;2023-09-30T06:55:19;95773.56;;;24.91;46.97
3096;BME280;1558;42.700;23.360;2023-09-30T06:57:48;95779.31;;;25.04;46.57
3096;BME280;1558;42.700;23.360;2023-09-30T07:00:16;95779.38;;;25.00;46.33
3096;BME280;1558;42.700;23.360;2023-09-30T07:02:44;95781.53;;;24.82;46.54
3096;BME280;1558;42.700;23.360;2023-09-30T07:05:14;95751.22;;;24.75;46.17
3096;BME280;1558;42.700;23.360;2023-09-30T07:07:43;95788.38;;;25.38;45.60
3096;BME280;1558;42.700;23.360;2023-09-30T07:10:12;95781.97;;;25.48;45.66
3096;BME280;1558;42.700;23.360;2023-09-30T07:12:41;95789.28;;;25.58;45.19
3096;BME280;1558;42.700;23.360;2023-09-30T07:15:11;95797.59;;;25.58;44.99
3096;BME280;1558;42.700;23.360;2023-09-30T07:17:40;95782.34;;;25.77;44.63
3096;BME280;1558;42.700;23.360;2023-09-30T07:20:11;95740.66;;;25.64;44.06
3096;BME280;1558;42.700;23.360;2023-09-30T07:22:40;95785.94;;;25.43;44.81
3096;BME280;1558;42.700;23.360;2023-09-30T07:25:28;95787.81;;;25.80;44.63
3096;BME280;1558;42.700;23.360;2023-09-30T07:27:58;95783.69;;;26.18;43.18
3096;BME280;1558;42.700;23.360;2023-09-30T07:30:29;95785.66;;;25.91;43.02
3096;BME280;1558;42.700;23.360;2023-09-30T07:32:57;95784.88;;;25.64;42.80
3096;BME280;1558;42.700;23.360;2023-09-30T07:35:25;95784.22;;;26.06;43.31
3096;BME280;1558;42.700;23.360;2023-09-30T07:37:53;95786.16;;;26.36;42.79
3096;BME280;1558;42.700;23.360;2023-09-30T07:40:21;95783.53;;;26.72;41.51
3096;BME280;1558;42.700;23.360;2023-09-30T07:42:49;95786.13;;;26.82;41.78
3096;BME280;1558;42.700;23.360;2023-09-30T07:45:18;95787.13;;;27.12;40.67
3096;BME280;1558;42.700;23.360;2023-09-30T07:47:49;95780.88;;;27.27;40.60
3096;BME280;1558;42.700;23.360;2023-09-30T07:50:18;95705.75;;;26.86;40.26
3096;BME280;1558;42.700;23.360;2023-09-30T07:52:46;95780.31;;;27.16;40.06
3096;BME280;1558;42.700;23.360;2023-09-30T07:55:14;95787.50;;;27.33;39.77
3096;BME280;1558;42.700;23.360;2023-09-30T07:57:43;95784.19;;;27.58;39.12
3096;BME280;1558;42.700;23.360;2023-09-30T08:00:13;95786.41;;;27.67;38.82
3096;BME280;1558;42.700;23.360;2023-09-30T08:02:43;95776.38;;;27.89;38.27
3096;BME280;1558;42.700;23.360;2023-09-30T08:05:13;95781.53;;;28.23;39.16
3096;BME280;1558;42.700;23.360;2023-09-30T08:07:41;95779.44;;;28.10;38.09
3096;BME280;1558;42.700;23.360;2023-09-30T08:10:10;95781.75;;;27.96;37.50
3096;BME280;1558;42.700;23.360;2023-09-30T08:12:41;95784.84;;;27.46;37.31
3096;BME280;1558;42.700;23.360;2023-09-30T08:15:09;95794.78;;;27.63;38.07
3096;BME280;1558;42.700;23.360;2023-09-30T08:17:39;95782.25;;;27.75;37.88
3096;BME280;1558;42.700;23.360;2023-09-30T08:20:08;95782.00;;;27.69;37.98
3096;BME280;1558;42.700;23.360;2023-09-30T08:22:38;95781.09;;;28.40;37.38
3096;BME280;1558;42.700;23.360;2023-09-30T08:25:07;95779.03;;;28.28;36.84
3096;BME280;1558;42.700;23.360;2023-09-30T08:27:36;95774.84;;;28.36;36.29
3096;BME280;1558;42.700;23.360;2023-09-30T08:30:06;95782.44;;;27.84;36.29
3096;BME280;1558;42.700;23.360;2023-09-30T08:32:34;95775.16;;;27.90;36.75
3096;BME280;1558;42.700;23.360;2023-09-30T08:35:03;95776.72;;;28.88;36.14
3096;BME280;1558;42.700;23.360;2023-09-30T08:37:31;95771.75;;;29.36;35.18
3096;BME280;1558;42.700;23.360;2023-09-30T08:40:02;95779.31;;;29.77;34.54
3096;BME280;1558;42.700;23.360;2023-09-30T08:42:32;95763.44;;;28.79;34.69
3096;BME280;1558;42.700;23.360;2023-09-30T08:45:02;95724.28;;;28.45;35.07
3096;BME280;1558;42.700;23.360;2023-09-30T08:47:33;95763.53;;;29.33;35.12
3096;BME280;1558;42.700;23.360;2023-09-30T08:50:03;95760.22;;;29.38;33.97
3096;BME280;1558;42.700;23.360;2023-09-30T08:52:33;95762.25;;;29.75;33.98
3096;BME280;1558;42.700;23.360;2023-09-30T08:55:08;95765.50;;;29.86;32.99
3096;BME280;1558;42.700;23.360;2023-09-30T08:57:38;95765.28;;;29.93;32.20
3096;BME280;1558;42.700;23.360;2023-09-30T09:00:09;95755.81;;;30.03;31.37
3096;BME280;1558;42.700;23.360;2023-09-30T09:02:40;95759.91;;;30.24;30.27
3096;BME280;1558;42.700;23.360;2023-09-30T09:05:09;95754.38;;;29.99;30.33
3096;BME280;1558;42.700;23.360;2023-09-30T09:07:38;95759.34;;;30.42;29.96
3096;BME280;1558;42.700;23.360;2023-09-30T09:10:09;95754.56;;;30.76;29.73
3096;BME280;1558;42.700;23.360;2023-09-30T09:12:40;95754.94;;;31.00;29.11
3096;BME280;1558;42.700;23.360;2023-09-30T09:15:20;95752.47;;;30.21;28.62
3096;BME280;1558;42.700;23.360;2023-09-30T09:17:48;95754.47;;;29.70;29.55
3096;BME280;1558;42.700;23.360;2023-09-30T09:20:19;95752.00;;;30.23;29.27
3096;BME280;1558;42.700;23.360;2023-09-30T09:22:49;95745.56;;;30.13;29.11
3096;BME280;1558;42.700;23.360;2023-09-30T09:25:22;95734.16;;;30.45;29.19
3096;BME280;1558;42.700;23.360;2023-09-30T09:27:51;95743.41;;;31.11;29.17
3096;BME280;1558;42.700;23.360;2023-09-30T09:30:22;95744.91;;;31.46;28.53
3096;BME280;1558;42.700;23.360;2023-09-30T09:33:09;95744.94;;;30.56;27.95
3096;BME280;1558;42.700;23.360;2023-09-30T09:35:37;95745.63;;;30.94;28.67
3096;BME280;1558;42.700;23.360;2023-09-30T09:38:07;95729.16;;;31.09;27.93
3096;BME280;1558;42.700;23.360;2023-09-30T09:40:38;95739.41;;;30.90;28.29
3096;BME280;1558;42.700;23.360;2023-09-30T09:43:07;95726.47;;;31.05;28.17
3096;BME280;1558;42.700;23.360;2023-09-30T09:45:37;95734.41;;;31.07;28.47
3096;BME280;1558;42.700;23.360;2023-09-30T09:48:06;95731.84;;;31.74;28.20
3096;BME280;1558;42.700;23.360;2023-09-30T09:50:35;95732.78;;;32.01;27.16
3096;BME280;1558;42.700;23.360;2023-09-30T09:53:05;95725.19;;;32.02;27.24
3096;BME280;1558;42.700;23.360;2023-09-30T09:55:33;95726.69;;;31.94;27.33
3096;BME280;1558;42.700;23.360;2023-09-30T09:58:08;95732.38;;;32.21;27.42
3096;BME280;1558;42.700;23.360;2023-09-30T10:00:38;95729.44;;;32.43;26.33
3096;BME280;1558;42.700;23.360;2023-09-30T10:03:07;95717.88;;;31.65;26.48
3096;BME280;1558;42.700;23.360;2023-09-30T10:05:35;95660.66;;;30.86;27.28
3096;BME280;1558;42.700;23.360;2023-09-30T10:08:08;95716.72;;;31.53;27.06
3096;BME280;1558;42.700;23.360;2023-09-30T10:10:39;95703.66;;;31.81;26.66
3096;BME280;1558;42.700;23.360;2023-09-30T10:13:09;95713.88;;;31.75;27.10
3096;BME280;1558;42.700;23.360;2023-09-30T10:15:58;95695.97;;;31.94;26.05
3096;BME280;1558;42.700;23.360;2023-09-30T10:18:26;95690.00;;;31.74;26.23
3096;BME280;1558;42.700;23.360;2023-09-30T10:21:07;95672.28;;;31.59;25.76
3096;BME280;1558;42.700;23.360;2023-09-30T10:23:36;95686.81;;;31.54;25.81
3096;BME280;1558;42.700;23.360;2023-09-30T10:26:16;95696.03;;;31.72;25.60
3096;BME280;1558;42.700;23.360;2023-09-30T10:28:47;95653.34;;;30.58;25.06
3096;BME280;1558;42.700;23.360;2023-09-30T10:31:17;95703.16;;;31.12;24.88
3096;BME280;1558;42.700;23.360;2023-09-30T10:34:20;95686.84;;;30.67;25.66
3096;BME280;1558;42.700;23.360;2023-09-30T10:36:49;95689.59;;;31.01;25.52
3096;BME280;1558;42.700;23.360;2023-09-30T10:39:53;95687.78;;;31.07;25.28
3096;BME280;1558;42.700;23.360;2023-09-30T10:42:47;95684.25;;;31.37;25.20
3096;BME280;1558;42.700;23.360;2023-09-30T10:45:46;95679.97;;;31.45;25.52
3096;BME280;1558;42.700;23.360;2023-09-30T10:48:35;95675.53;;;31.97;25.10
3096;BME280;1558;42.700;23.360;2023-09-30T10:51:11;95592.78;;;31.32;24.82
3096;BME280;1558;42.700;23.360;2023-09-30T10:53:45;95661.84;;;31.50;24.54
3096;BME280;1558;42.700;23.360;2023-09-30T10:56:15;95677.09;;;31.67;25.24
3096;BME280;1558;42.700;23.360;2023-09-30T10:58:44;95676.34;;;32.16;24.87
3096;BME280;1558;42.700;23.360;2023-09-30T11:01:15;95672.16;;;32.20;24.37
3096;BME280;1558;42.700;23.360;2023-09-30T11:03:45;95674.00;;;32.14;23.95
3096;BME280;1558;42.700;23.360;2023-09-30T11:06:15;95669.38;;;32.11;24.15
3096;BME280;1558;42.700;23.360;2023-09-30T11:08:50;95667.88;;;32.64;24.34
3096;BME280;1558;42.700;23.360;2023-09-30T11:11:32;95661.97;;;32.81;23.65
3096;BME280;1558;42.700;23.360;2023-09-30T11:14:01;95666.47;;;31.44;23.64
3096;BME280;1558;42.700;23.360;2023-09-30T11:16:30;95664.38;;;30.14;25.85
3096;BME280;1558;42.700;23.360;2023-09-30T11:19:07;95666.50;;;31.22;25.31
3096;BME280;1558;42.700;23.360;2023-09-30T11:21:36;95655.53;;;31.28;24.75
3096;BME280;1558;42.700;23.360;2023-09-30T11:24:04;95636.34;;;31.39;24.62
3096;BME280;1558;42.700;23.360;2023-09-30T11:26:34;95655.81;;;31.52;24.65
3096;BME280;1558;42.700;23.360;2023-09-30T11:29:05;95655.38;;;31.31;25.07
3096;BME280;1558;42.700;23.360;2023-09-30T11:31:38;95661.97;;;31.16;25.27
3096;BME280;1558;42.700;23.360;2023-09-30T11:34:07;95646.63;;;30.68;25.14
3096;BME280;1558;42.700;23.360;2023-09-30T11:36:36;95651.06;;;30.44;25.63
3096;BME280;1558;42.700;23.360;2023-09-30T11:39:06;95646.72;;;30.08;26.68
3096;BME280;1558;42.700;23.360;2023-09-30T11:41:37;95644.34;;;30.54;26.23
3096;BME280;1558;42.700;23.360;2023-09-30T11:44:07;95626.72;;;30.57;25.36
3096;BME280;1558;42.700;23.360;2023-09-30T11:46:52;95633.63;;;30.74;25.97
3096;BME280;1558;42.700;23.360;2023-09-30T11:49:25;95635.50;;;30.34;26.53
3096;BME280;1558;42.700;23.360;2023-09-30T11:51:55;95626.59;;;30.82;25.78
3096;BME280;1558;42.700;23.360;2023-09-30T11:54:30;95630.19;;;31.13;26.29
3096;BME280;1558;42.700;23.360;2023-09-30T11:57:00;95585.19;;;30.93;25.36
3096;BME280;1558;42.700;23.360;2023-09-30T11:59:28;95618.69;;;31.02;26.17
3096;BME280;1558;42.700;23.360;2023-09-30T12:01:58;95617.28;;;31.28;25.62
3096;BME280;1558;42.700;23.360;2023-09-30T12:04:29;95604.13;;;31.78;25.50
3096;BME280;1558;42.700;23.360;2023-09-30T12:06:57;95617.38;;;32.86;25.07
3096;BME280;1558;42.700;23.360;2023-09-30T12:09:25;95615.97;;;33.09;24.16
3096;BME280;1558;42.700;23.360;2023-09-30T12:11:54;95607.00;;;32.32;24.48
3096;BME280;1558;42.700;23.360;2023-09-30T12:14:24;95590.69;;;32.03;24.44
3096;BME280;1558;42.700;23.360;2023-09-30T12:16:52;95613.50;;;31.22;25.08
3096;BME280;1558;42.700;23.360;2023-09-30T12:19:25;95599.50;;;30.61;25.61
3096;BME280;1558;42.700;23.360;2023-09-30T12:21:53;95601.56;;;30.26;26.14
3096;BME280;1558;42.700;23.360;2023-09-30T12:24:22;95596.50;;;30.99;26.05
3096;BME280;1558;42.700;23.360;2023-09-30T12:26:51;95594.22;;;31.37;25.20
3096;BME280;1558;42.700;23.360;2023-09-30T12:29:21;95594.97;;;31.28;25.71
3096;BME280;1558;42.700;23.360;2023-09-30T12:31:52;95594.25;;;31.06;25.85
3096;BME280;1558;42.700;23.360;2023-09-30T12:34:22;95565.28;;;30.82;25.27
3096;BME280;1558;42.700;23.360;2023-09-30T12:36:54;95591.84;;;31.26;25.65
3096;BME280;1558;42.700;23.360;2023-09-30T12:39:26;95588.69;;;31.46;25.68
3096;BME280;1558;42.700;23.360;2023-09-30T12:41:58;95588.56;;;31.59;25.83
3096;BME280;1558;42.700;23.360;2023-09-30T12:44:26;95545.81;;;31.31;25.16
3096;BME280;1558;42.700;23.360;2023-09-30T12:46:56;95540.94;;;30.73;25.35
3096;BME280;1558;42.700;23.360;2023-09-30T12:49:24;95578.09;;;31.01;25.65
3096;BME280;1558;42.700;23.360;2023-09-30T12:51:52;95576.16;;;31.51;25.31
3096;BME280;1558;42.700;23.360;2023-09-30T12:54:22;95561.28;;;31.63;24.99
3096;BME280;1558;42.700;23.360;2023-09-30T12:56:50;95574.03;;;31.64;25.49
3096;BME280;1558;42.700;23.360;2023-09-30T12:59:18;95568.69;;;31.48;25.14
3096;BME280;1558;42.700;23.360;2023-09-30T13:01:51;95570.66;;;30.98;25.52
3096;BME280;1558;42.700;23.360;2023-09-30T13:04:19;95571.09;;;30.44;26.38
3096;BME280;1558;42.700;23.360;2023-09-30T13:06:50;95579.22;;;29.70;26.80
3096;BME280;1558;42.700;23.360;2023-09-30T13:09:19;95518.09;;;28.69;27.35
3096;BME280;1558;42.700;23.360;2023-09-30T13:11:53;95567.00;;;28.38;28.47
3096;BME280;1558;42.700;23.360;2023-09-30T13:14:21;95552.56;;;28.43;28.62
3096;BME280;1558;42.700;23.360;2023-09-30T13:16:49;95573.31;;;28.67;28.82
3096;BME280;1558;42.700;23.360;2023-09-30T13:19:17;95566.66;;;28.77;28.14
3096;BME280;1558;42.700;23.360;2023-09-30T13:21:48;95547.34;;;28.87;27.97
3096;BME280;1558;42.700;23.360;2023-09-30T13:24:17;95562.78;;;28.46;28.64
3096;BME280;1558;42.700;23.360;2023-09-30T13:26:45;95561.63;;;28.60;29.11